Time;durP1;ratioP1;P1;durP2;ratioP2;P2;SDS_P1;SDS_P2;PMS_P1;PMS_P2;Temp;Humidity;BMP_temperature;BMP_pressure;BME280_temperature;BME280_humidity;BME280_pressure;Samples;Min_cycle;Max_cycle;Signal;HPM_P1;HPM_P2
2022/01/11 00:00:42;;;;;;;;;;;0.70;99.90;;;;;;5039894;28;19920;-74
2022/01/11 00:03:08;;;;;;;;;;;0.60;99.90;;;;;;5034897;28;20227;-75
2022/01/11 00:05:39;;;;;;;;;;;0.60;99.90;;;;;;5027914;28;19913;-74
2022/01/11 00:08:08;;;;;;;;;;;0.60;99.90;;;;;;5046657;28;19948;-75
2022/01/11 00:10:45;;;;;;;;;;;0.60;99.90;;;;;;5045696;28;19921;-74
2022/01/11 00:13:11;;;;;;;;;;;0.60;99.90;;;;;;5039710;28;20051;-74
2022/01/11 00:15:37;;;;;;;;;;;0.70;99.90;;;;;;5015652;28;20007;-74
2022/01/11 00:18:03;;;;;;;;;;;0.70;99.90;;;;;;5043376;28;19920;-75
2022/01/11 00:20:28;;;;;;;;;;;0.70;99.90;;;;;;5036909;28;19928;-75
2022/01/11 00:25:26;;;;;;;;;;;0.70;99.90;;;;;;5046303;28;19966;-75
2022/01/11 00:27:52;;;;;;;;;;;0.70;99.90;;;;;;5049651;28;19924;-77
2022/01/11 00:30:18;;;;;;;;;;;0.70;99.90;;;;;;5032412;28;19921;-75
2022/01/11 00:32:49;;;;;;;;;;;0.70;99.90;;;;;;5041738;28;19928;-74
2022/01/11 00:35:16;;;;;;;;;;;0.80;99.90;;;;;;5037881;28;19928;-75
2022/01/11 00:37:43;;;;;;;;;;;0.80;99.90;;;;;;5041508;28;20099;-75
2022/01/11 00:40:09;;;;;;;;;;;0.70;99.90;;;;;;5035949;28;20038;-75
2022/01/11 00:42:35;;;;;;;;;;;0.70;99.90;;;;;;5033016;28;19917;-75
2022/01/11 00:45:04;;;;;;;;;;;0.70;99.90;;;;;;5045747;28;19921;-75
2022/01/11 00:47:29;;;;;;;;;;;0.70;99.90;;;;;;5026480;28;19921;-75
2022/01/11 00:49:55;;;;;;;;;;;0.70;99.90;;;;;;5036948;28;20011;-74
2022/01/11 00:52:21;;;;;;;;;;;0.70;99.90;;;;;;5033365;28;20307;-74
2022/01/11 00:54:46;;;;;;;;;;;0.70;99.90;;;;;;5049344;28;19938;-75
2022/01/11 00:57:12;;;;;;;;;;;0.70;99.90;;;;;;5041429;28;19952;-74
2022/01/11 00:59:38;;;;;;;;;;;0.70;99.90;;;;;;5049256;28;20003;-74
2022/01/11 01:02:03;;;;;;;;;;;0.70;99.90;;;;;;5050103;28;19924;-74
2022/01/11 01:04:29;;;;;;;;;;;0.70;99.90;;;;;;5047990;28;20042;-74
2022/01/11 01:06:55;;;;;;;;;;;0.70;99.90;;;;;;5044004;28;19943;-74
2022/01/11 01:09:20;;;;;;;;;;;0.70;99.90;;;;;;5031547;28;20324;-75
2022/01/11 01:11:46;;;;;;;;;;;0.70;99.90;;;;;;5045837;28;21252;-75
2022/01/11 01:14:12;;;;;;;;;;;0.80;99.90;;;;;;5038189;28;20087;-74
2022/01/11 01:16:39;;;;;;;;;;;0.70;99.90;;;;;;5048515;28;20039;-74
2022/01/11 01:19:05;;;;;;;;;;;0.80;99.90;;;;;;5049558;28;19920;-75
2022/01/11 01:21:37;;;;;;;;;;;0.70;99.90;;;;;;5049620;28;19913;-75
2022/01/11 01:24:03;;;;;;;;;;;0.70;99.90;;;;;;5038353;28;20318;-76
2022/01/11 01:26:29;;;;;;;;;;;0.70;99.90;;;;;;5039881;28;19964;-75
2022/01/11 01:28:54;;;;;;;;;;;0.70;99.90;;;;;;5047071;28;19944;-75
2022/01/11 01:31:20;;;;;;;;;;;0.70;99.90;;;;;;5043015;28;20140;-74
2022/01/11 01:33:46;;;;;;;;;;;0.70;99.90;;;;;;5048883;28;20258;-74
2022/01/11 01:36:11;;;;;;;;;;;0.70;99.90;;;;;;5046744;28;19936;-75
2022/01/11 01:38:37;;;;;;;;;;;0.70;99.90;;;;;;5041605;28;20315;-74
2022/01/11 01:41:13;;;;;;;;;;;0.70;99.90;;;;;;5046281;28;19950;-75
2022/01/11 01:43:38;;;;;;;;;;;0.70;99.90;;;;;;5033503;28;19920;-76
2022/01/11 01:46:04;;;;;;;;;;;0.60;99.90;;;;;;5048220;28;19913;-75
2022/01/11 01:48:30;;;;;;;;;;;0.60;99.90;;;;;;5043014;28;19921;-74
2022/01/11 01:50:55;;;;;;;;;;;0.60;99.90;;;;;;5044494;28;19952;-74
2022/01/11 01:53:21;;;;;;;;;;;0.60;99.90;;;;;;5046654;28;19912;-75
2022/01/11 01:55:47;;;;;;;;;;;0.60;99.90;;;;;;5048253;28;20319;-75
2022/01/11 01:58:13;;;;;;;;;;;0.60;99.90;;;;;;5047761;28;20012;-75
2022/01/11 02:00:42;;;;;;;;;;;0.60;99.90;;;;;;5040262;28;19924;-74
2022/01/11 02:03:11;;;;;;;;;;;0.60;99.90;;;;;;5040709;28;19931;-75
2022/01/11 02:05:37;;;;;;;;;;;0.60;99.90;;;;;;5044744;28;20004;-74
2022/01/11 02:08:03;;;;;;;;;;;0.60;99.90;;;;;;5025106;28;19925;-75
2022/01/11 02:10:28;;;;;;;;;;;0.50;99.90;;;;;;5048306;28;20346;-75
2022/01/11 02:12:55;;;;;;;;;;;0.50;99.90;;;;;;5049134;28;19966;-74
2022/01/11 02:15:20;;;;;;;;;;;0.50;99.90;;;;;;5048485;28;19927;-75
2022/01/11 02:17:46;;;;;;;;;;;0.50;99.90;;;;;;5047487;28;19917;-76
2022/01/11 02:20:13;;;;;;;;;;;0.50;99.90;;;;;;5049207;28;19974;-75
2022/01/11 02:22:38;;;;;;;;;;;0.50;99.90;;;;;;5041786;28;19916;-75
2022/01/11 02:25:04;;;;;;;;;;;0.50;99.90;;;;;;5041670;28;20308;-76
2022/01/11 02:27:30;;;;;;;;;;;0.50;99.90;;;;;;5047695;28;19917;-75
2022/01/11 02:29:56;;;;;;;;;;;0.60;99.90;;;;;;5037564;28;19924;-74
2022/01/11 02:32:21;;;;;;;;;;;0.60;99.90;;;;;;5048098;28;19948;-74
2022/01/11 02:34:47;;;;;;;;;;;0.60;99.90;;;;;;5048468;28;19920;-74
2022/01/11 02:37:13;;;;;;;;;;;0.70;99.90;;;;;;5048666;28;19920;-74
2022/01/11 02:39:39;;;;;;;;;;;0.70;99.90;;;;;;5029748;28;19917;-74
2022/01/11 02:42:05;;;;;;;;;;;0.70;99.90;;;;;;5031434;28;19943;-74
2022/01/11 02:44:30;;;;;;;;;;;0.70;99.90;;;;;;5029481;28;20204;-75
2022/01/11 02:46:56;;;;;;;;;;;0.60;99.90;;;;;;5044849;28;19962;-74
2022/01/11 02:49:22;;;;;;;;;;;0.70;99.90;;;;;;5047530;28;20304;-74
2022/01/11 02:51:47;;;;;;;;;;;0.60;99.90;;;;;;5036931;28;20275;-74
2022/01/11 02:54:13;;;;;;;;;;;0.70;99.90;;;;;;5046881;28;19916;-74
2022/01/11 02:56:38;;;;;;;;;;;0.70;99.90;;;;;;5047724;28;19958;-74
2022/01/11 02:59:04;;;;;;;;;;;0.70;99.90;;;;;;5046190;28;19913;-75
2022/01/11 03:01:29;;;;;;;;;;;0.60;99.90;;;;;;5048020;28;19921;-74
2022/01/11 03:03:55;;;;;;;;;;;0.60;99.90;;;;;;5021346;28;20283;-74
2022/01/11 03:06:21;;;;;;;;;;;0.70;99.90;;;;;;5031863;28;20656;-74
2022/01/11 03:08:46;;;;;;;;;;;0.70;99.90;;;;;;5042719;28;19928;-74
2022/01/11 03:11:13;;;;;;;;;;;0.70;99.90;;;;;;5047862;28;20039;-74
2022/01/11 03:13:40;;;;;;;;;;;0.60;99.90;;;;;;5039213;28;19913;-75
2022/01/11 03:16:06;;;;;;;;;;;0.60;99.90;;;;;;5035327;28;19932;-74
2022/01/11 03:18:32;;;;;;;;;;;0.60;99.90;;;;;;5038373;28;19921;-75
2022/01/11 03:20:57;;;;;;;;;;;0.60;99.90;;;;;;5041189;28;20220;-74
2022/01/11 03:23:23;;;;;;;;;;;0.60;99.90;;;;;;5022003;28;19964;-74
2022/01/11 03:25:51;;;;;;;;;;;0.60;99.90;;;;;;5044673;28;20003;-74
2022/01/11 03:28:17;;;;;;;;;;;0.60;99.90;;;;;;5043741;28;19913;-74
2022/01/11 03:30:42;;;;;;;;;;;0.60;99.90;;;;;;5016072;28;20260;-75
2022/01/11 03:33:08;;;;;;;;;;;0.60;99.90;;;;;;5048337;28;19913;-74
2022/01/11 03:35:35;;;;;;;;;;;0.60;99.90;;;;;;5039139;28;20008;-78
2022/01/11 03:38:00;;;;;;;;;;;0.60;99.90;;;;;;5046931;28;19921;-74
2022/01/11 03:40:26;;;;;;;;;;;0.60;99.90;;;;;;5047323;28;20311;-75
2022/01/11 03:42:52;;;;;;;;;;;0.60;99.90;;;;;;5051833;28;19909;-75
2022/01/11 03:45:21;;;;;;;;;;;0.50;99.90;;;;;;5036551;28;20320;-75
2022/01/11 03:47:47;;;;;;;;;;;0.60;99.90;;;;;;5035738;28;20444;-75
2022/01/11 03:50:13;;;;;;;;;;;0.50;99.90;;;;;;5042302;28;20348;-75
2022/01/11 03:52:39;;;;;;;;;;;0.60;99.90;;;;;;5041832;28;19913;-78
2022/01/11 03:55:11;;;;;;;;;;;0.60;99.90;;;;;;5044134;28;20224;-74
2022/01/11 03:57:37;;;;;;;;;;;0.60;99.90;;;;;;5049878;28;19919;-75
2022/01/11 04:00:07;;;;;;;;;;;0.60;99.90;;;;;;5049114;28;19958;-75
2022/01/11 04:02:33;;;;;;;;;;;0.60;99.90;;;;;;5023243;28;20066;-75
2022/01/11 04:04:58;;;;;;;;;;;0.60;99.90;;;;;;5049602;28;19999;-75
2022/01/11 04:07:25;;;;;;;;;;;0.70;99.90;;;;;;5051891;28;19919;-75
2022/01/11 04:09:51;;;;;;;;;;;0.70;99.90;;;;;;5049298;28;19924;-75
2022/01/11 04:12:17;;;;;;;;;;;0.70;99.90;;;;;;5050580;28;20025;-75
2022/01/11 04:14:42;;;;;;;;;;;0.60;99.90;;;;;;5050465;28;19952;-75
2022/01/11 04:17:08;;;;;;;;;;;0.70;99.90;;;;;;5051075;28;20306;-75
2022/01/11 04:19:34;;;;;;;;;;;0.70;99.90;;;;;;5051149;28;19920;-75
2022/01/11 04:21:59;;;;;;;;;;;0.70;99.90;;;;;;5038567;28;19929;-76
2022/01/11 04:24:25;;;;;;;;;;;0.70;99.90;;;;;;5027947;28;19952;-75
2022/01/11 04:26:50;;;;;;;;;;;0.70;99.90;;;;;;5041304;28;21278;-75
2022/01/11 04:29:16;;;;;;;;;;;0.70;99.90;;;;;;5040517;28;20300;-75
2022/01/11 04:31:42;;;;;;;;;;;0.70;99.90;;;;;;5050886;28;19972;-75
2022/01/11 04:34:08;;;;;;;;;;;0.70;99.90;;;;;;5049932;28;19923;-75
2022/01/11 04:36:33;;;;;;;;;;;0.70;99.90;;;;;;5040204;28;19913;-75
2022/01/11 04:39:00;;;;;;;;;;;0.70;99.90;;;;;;5049012;28;19936;-75
2022/01/11 04:41:26;;;;;;;;;;;0.70;99.90;;;;;;5037378;28;19913;-75
2022/01/11 04:43:51;;;;;;;;;;;0.70;99.90;;;;;;5047545;28;19960;-75
2022/01/11 04:46:19;;;;;;;;;;;0.80;99.90;;;;;;5024239;28;20273;-75
2022/01/11 04:48:45;;;;;;;;;;;0.80;99.90;;;;;;5022463;28;19925;-75
2022/01/11 04:51:11;;;;;;;;;;;0.80;99.90;;;;;;5037489;28;20207;-75
2022/01/11 04:53:37;;;;;;;;;;;0.80;99.90;;;;;;5034158;28;19917;-75
2022/01/11 04:56:03;;;;;;;;;;;0.80;99.90;;;;;;5027164;28;20329;-75
2022/01/11 04:58:28;;;;;;;;;;;0.80;99.90;;;;;;5020341;28;19928;-75
2022/01/11 05:00:54;;;;;;;;;;;0.80;99.90;;;;;;5039043;28;19948;-75
2022/01/11 05:03:20;;;;;;;;;;;0.80;99.90;;;;;;5031492;28;19916;-75
2022/01/11 05:05:46;;;;;;;;;;;0.80;99.90;;;;;;5050369;28;19928;-74
2022/01/11 05:08:12;;;;;;;;;;;0.80;99.90;;;;;;5038811;28;19917;-75
2022/01/11 05:10:42;;;;;;;;;;;0.80;99.90;;;;;;5043639;28;19925;-75
2022/01/11 05:13:11;;;;;;;;;;;0.80;99.90;;;;;;5048808;28;19963;-77
2022/01/11 05:15:37;;;;;;;;;;;0.80;99.90;;;;;;5037238;28;19921;-75
2022/01/11 05:18:03;;;;;;;;;;;0.80;99.90;;;;;;5049133;28;20312;-78
2022/01/11 05:20:28;;;;;;;;;;;0.80;99.90;;;;;;5049851;28;19920;-75
2022/01/11 05:22:54;;;;;;;;;;;0.80;99.90;;;;;;5025884;28;19925;-75
2022/01/11 05:25:20;;;;;;;;;;;0.80;99.90;;;;;;5028165;28;19921;-75
2022/01/11 05:27:46;;;;;;;;;;;0.80;99.90;;;;;;5030515;28;19917;-77
2022/01/11 05:30:12;;;;;;;;;;;0.80;99.90;;;;;;5044609;28;19929;-75
2022/01/11 05:32:38;;;;;;;;;;;0.80;99.90;;;;;;5031378;28;19921;-75
2022/01/11 05:35:05;;;;;;;;;;;0.80;99.90;;;;;;5038502;28;19913;-75
2022/01/11 05:37:30;;;;;;;;;;;0.80;99.90;;;;;;5030538;28;20505;-75
2022/01/11 05:39:56;;;;;;;;;;;0.80;99.90;;;;;;5030242;28;20321;-75
2022/01/11 05:42:23;;;;;;;;;;;0.80;99.90;;;;;;5035079;28;20020;-75
2022/01/11 05:44:48;;;;;;;;;;;0.90;99.90;;;;;;5030634;28;20035;-75
2022/01/11 05:47:14;;;;;;;;;;;0.80;99.90;;;;;;5039322;28;20312;-75
2022/01/11 05:49:39;;;;;;;;;;;0.80;99.90;;;;;;5030932;28;19995;-75
2022/01/11 05:52:05;;;;;;;;;;;0.80;99.90;;;;;;5030508;28;19917;-76
2022/01/11 05:54:30;;;;;;;;;;;0.80;99.90;;;;;;5030590;28;20530;-74
2022/01/11 05:56:56;;;;;;;;;;;0.80;99.90;;;;;;5030366;28;19921;-75
2022/01/11 05:59:22;;;;;;;;;;;0.80;99.90;;;;;;5039370;28;19924;-75
2022/01/11 06:01:47;;;;;;;;;;;0.80;99.90;;;;;;5030332;28;20016;-76
2022/01/11 06:04:13;;;;;;;;;;;0.80;99.90;;;;;;5030275;28;20301;-76
2022/01/11 06:06:38;;;;;;;;;;;0.80;99.90;;;;;;5038793;28;20216;-76
2022/01/11 06:09:04;;;;;;;;;;;0.80;99.90;;;;;;5029906;28;20000;-75
2022/01/11 06:11:30;;;;;;;;;;;0.80;99.90;;;;;;5029670;28;19925;-75
2022/01/11 06:13:55;;;;;;;;;;;0.80;99.90;;;;;;5030289;28;19996;-75
2022/01/11 06:16:21;;;;;;;;;;;0.80;99.90;;;;;;5029398;28;19956;-75
2022/01/11 06:18:48;;;;;;;;;;;0.80;99.90;;;;;;5029801;28;19947;-75
2022/01/11 06:21:13;;;;;;;;;;;0.70;99.90;;;;;;5027368;28;19925;-76
2022/01/11 06:23:39;;;;;;;;;;;0.80;99.90;;;;;;5042040;28;19920;-75
2022/01/11 06:26:04;;;;;;;;;;;0.80;99.90;;;;;;5040527;28;20036;-74
2022/01/11 06:28:30;;;;;;;;;;;0.80;99.90;;;;;;5027575;28;20017;-75
2022/01/11 06:30:56;;;;;;;;;;;0.80;99.90;;;;;;5039265;28;19925;-76
2022/01/11 06:33:23;;;;;;;;;;;0.80;99.90;;;;;;5036173;28;20356;-75
2022/01/11 06:35:48;;;;;;;;;;;0.70;99.90;;;;;;5045104;28;19927;-76
2022/01/11 06:38:14;;;;;;;;;;;0.70;99.90;;;;;;5043402;28;19913;-75
2022/01/11 06:40:40;;;;;;;;;;;0.60;99.90;;;;;;5037591;28;19917;-75
2022/01/11 06:43:06;;;;;;;;;;;0.70;99.90;;;;;;5038926;28;19917;-75
2022/01/11 06:45:33;;;;;;;;;;;0.70;99.90;;;;;;5005355;28;19984;-76
2022/01/11 06:48:00;;;;;;;;;;;0.70;99.90;;;;;;5018422;28;19979;-75
2022/01/11 06:50:27;;;;;;;;;;;0.70;99.90;;;;;;5041410;28;19979;-75
2022/01/11 06:52:52;;;;;;;;;;;0.70;99.90;;;;;;5044201;28;19928;-75
2022/01/11 06:55:19;;;;;;;;;;;0.70;99.90;;;;;;5040882;28;19921;-76
2022/01/11 06:57:45;;;;;;;;;;;0.60;99.90;;;;;;5042966;28;20002;-74
2022/01/11 07:00:11;;;;;;;;;;;0.60;99.90;;;;;;5023553;28;19917;-75
2022/01/11 07:02:37;;;;;;;;;;;0.70;99.90;;;;;;5038791;28;19928;-74
2022/01/11 07:05:02;;;;;;;;;;;0.70;99.90;;;;;;5026235;28;19917;-75
2022/01/11 07:07:28;;;;;;;;;;;0.70;99.90;;;;;;5018894;28;19921;-75
2022/01/11 07:09:53;;;;;;;;;;;0.70;99.90;;;;;;5022637;28;19921;-75
2022/01/11 07:12:19;;;;;;;;;;;0.60;99.90;;;;;;5043087;28;19966;-75
2022/01/11 07:14:45;;;;;;;;;;;0.60;99.90;;;;;;5021240;28;20760;-75
2022/01/11 07:17:10;;;;;;;;;;;0.60;99.90;;;;;;5021367;28;19917;-75
2022/01/11 07:19:37;;;;;;;;;;;0.60;99.90;;;;;;5006385;28;19928;-75
2022/01/11 07:22:03;;;;;;;;;;;0.60;99.90;;;;;;5024009;28;20686;-77
2022/01/11 07:24:29;;;;;;;;;;;0.60;99.90;;;;;;5026830;28;19917;-75
2022/01/11 07:26:55;;;;;;;;;;;0.60;99.90;;;;;;5038446;28;19917;-75
2022/01/11 07:29:20;;;;;;;;;;;0.50;99.90;;;;;;5031674;28;19913;-75
2022/01/11 07:31:46;;;;;;;;;;;0.60;99.90;;;;;;5039300;28;19986;-75
2022/01/11 07:34:11;;;;;;;;;;;0.60;99.90;;;;;;5037602;28;19913;-75
2022/01/11 07:36:37;;;;;;;;;;;0.60;99.90;;;;;;5041110;28;19974;-76
2022/01/11 07:39:04;;;;;;;;;;;0.60;99.90;;;;;;5045468;28;19925;-76
2022/01/11 07:41:29;;;;;;;;;;;0.60;99.90;;;;;;5031177;28;20008;-75
2022/01/11 07:43:55;;;;;;;;;;;0.60;99.90;;;;;;5036350;28;20011;-76
2022/01/11 07:46:20;;;;;;;;;;;0.60;99.90;;;;;;5017102;28;19917;-74
2022/01/11 07:48:46;;;;;;;;;;;0.60;99.90;;;;;;5035988;28;19921;-76
2022/01/11 07:51:11;;;;;;;;;;;0.60;99.90;;;;;;5019717;28;19947;-75
2022/01/11 07:53:37;;;;;;;;;;;0.70;99.90;;;;;;5046793;28;20318;-75
2022/01/11 07:56:03;;;;;;;;;;;0.60;99.90;;;;;;5036084;28;19921;-76
2022/01/11 07:58:29;;;;;;;;;;;0.60;99.90;;;;;;5034711;28;19917;-76
2022/01/11 08:00:55;;;;;;;;;;;0.60;99.90;;;;;;5037614;28;19986;-75
2022/01/11 08:03:21;;;;;;;;;;;0.60;99.90;;;;;;5021110;28;19939;-74
2022/01/11 08:05:46;;;;;;;;;;;0.60;99.90;;;;;;5022767;28;19955;-75
2022/01/11 08:08:12;;;;;;;;;;;0.60;99.90;;;;;;5038009;28;19924;-76
2022/01/11 08:10:37;;;;;;;;;;;0.60;99.90;;;;;;5025693;28;20280;-74
2022/01/11 08:13:06;;;;;;;;;;;0.60;99.90;;;;;;5045131;28;19916;-75
2022/01/11 08:15:32;;;;;;;;;;;0.60;99.90;;;;;;5047172;28;19970;-75
2022/01/11 08:17:58;;;;;;;;;;;0.70;99.90;;;;;;5038021;28;19921;-75
2022/01/11 08:20:24;;;;;;;;;;;0.70;99.90;;;;;;5042616;28;19917;-75
2022/01/11 08:22:51;;;;;;;;;;;0.60;99.90;;;;;;5047217;28;20617;-75
2022/01/11 08:25:16;;;;;;;;;;;0.70;99.90;;;;;;5034152;28;20311;-75
2022/01/11 08:27:42;;;;;;;;;;;0.60;99.90;;;;;;5022487;28;19960;-74
2022/01/11 08:30:08;;;;;;;;;;;0.70;99.90;;;;;;5028402;28;20541;-75
2022/01/11 08:32:33;;;;;;;;;;;0.60;99.90;;;;;;5037778;28;19921;-75
2022/01/11 08:34:59;;;;;;;;;;;0.60;99.90;;;;;;5049699;28;19919;-75
2022/01/11 08:37:24;;;;;;;;;;;0.70;99.90;;;;;;5040569;28;19923;-75
2022/01/11 08:39:50;;;;;;;;;;;0.70;99.90;;;;;;5049507;28;19917;-74
2022/01/11 08:42:16;;;;;;;;;;;0.80;99.90;;;;;;5050011;28;21157;-75
2022/01/11 08:44:42;;;;;;;;;;;0.70;99.90;;;;;;5050386;28;19921;-76
2022/01/11 08:47:08;;;;;;;;;;;0.70;99.90;;;;;;5040545;28;19921;-75
2022/01/11 08:49:34;;;;;;;;;;;0.70;99.90;;;;;;5029212;28;19932;-74
2022/01/11 08:51:59;;;;;;;;;;;0.80;99.90;;;;;;5047799;28;19920;-75
2022/01/11 08:54:25;;;;;;;;;;;0.80;99.90;;;;;;5051146;28;19913;-75
2022/01/11 08:56:53;;;;;;;;;;;0.80;99.90;;;;;;5048078;28;19920;-75
2022/01/11 08:59:18;;;;;;;;;;;0.80;99.90;;;;;;5049446;28;19920;-75
2022/01/11 09:01:44;;;;;;;;;;;0.80;99.90;;;;;;5048696;28;19939;-78
2022/01/11 09:04:09;;;;;;;;;;;0.90;99.90;;;;;;5049203;28;19917;-75
2022/01/11 09:06:35;;;;;;;;;;;0.90;99.90;;;;;;5036171;28;19913;-74
2022/01/11 09:09:02;;;;;;;;;;;0.90;99.90;;;;;;5039868;28;21235;-75
2022/01/11 09:11:28;;;;;;;;;;;0.90;99.90;;;;;;5042351;28;20354;-75
2022/01/11 09:13:54;;;;;;;;;;;0.90;99.90;;;;;;5036049;28;19916;-75
2022/01/11 09:16:21;;;;;;;;;;;0.90;99.90;;;;;;5032670;28;19917;-75
2022/01/11 09:18:48;;;;;;;;;;;0.90;99.90;;;;;;5022544;28;20008;-75
2022/01/11 09:21:15;;;;;;;;;;;0.90;99.90;;;;;;5022122;28;19935;-75
2022/01/11 09:23:40;;;;;;;;;;;0.90;99.90;;;;;;5031108;28;19932;-75
2022/01/11 09:26:06;;;;;;;;;;;0.90;99.90;;;;;;5033803;28;20000;-75
2022/01/11 09:28:35;;;;;;;;;;;0.80;99.90;;;;;;5027732;28;20300;-75
2022/01/11 09:31:01;;;;;;;;;;;0.80;99.90;;;;;;5017761;28;20313;-75
2022/01/11 09:33:26;;;;;;;;;;;0.80;99.90;;;;;;5035499;28;19959;-75
2022/01/11 09:35:52;;;;;;;;;;;0.90;99.90;;;;;;5035647;28;20221;-75
2022/01/11 09:38:22;;;;;;;;;;;0.90;99.90;;;;;;5031016;28;19925;-75
2022/01/11 09:40:50;;;;;;;;;;;0.90;99.90;;;;;;5019024;28;19909;-75
2022/01/11 09:43:16;;;;;;;;;;;0.80;99.90;;;;;;5035626;28;19917;-75
2022/01/11 09:45:41;;;;;;;;;;;0.80;99.90;;;;;;5036205;28;20256;-75
2022/01/11 09:48:07;;;;;;;;;;;0.80;99.90;;;;;;5033782;28;19925;-75
2022/01/11 09:50:32;;;;;;;;;;;0.80;99.90;;;;;;5016409;28;19921;-75
2022/01/11 09:53:01;;;;;;;;;;;0.80;99.90;;;;;;5019300;28;19921;-75
2022/01/11 09:55:29;;;;;;;;;;;0.80;99.90;;;;;;5028368;28;20304;-76
2022/01/11 09:57:57;;;;;;;;;;;0.80;99.90;;;;;;5028287;28;20208;-75
2022/01/11 10:00:23;;;;;;;;;;;0.80;99.90;;;;;;5029698;28;19913;-75
2022/01/11 10:02:49;;;;;;;;;;;0.80;99.90;;;;;;5024642;28;19917;-75
2022/01/11 10:05:19;;;;;;;;;;;0.90;99.90;;;;;;5010462;28;19975;-75
2022/01/11 10:07:49;;;;;;;;;;;0.90;99.90;;;;;;5022034;28;19916;-75
2022/01/11 10:10:23;;;;;;;;;;;1.10;99.90;;;;;;4999160;28;20301;-75
2022/01/11 10:12:58;;;;;;;;;;;1.10;99.90;;;;;;5010428;28;19928;-75
2022/01/11 10:15:30;;;;;;;;;;;1.20;99.90;;;;;;5024178;28;19926;-75
2022/01/11 10:18:00;;;;;;;;;;;1.30;99.90;;;;;;5014685;28;20242;-75
2022/01/11 10:20:30;;;;;;;;;;;1.30;99.90;;;;;;5028611;28;19921;-75
2022/01/11 10:23:01;;;;;;;;;;;1.30;99.90;;;;;;5028366;28;19925;-75
2022/01/11 10:25:31;;;;;;;;;;;1.40;99.90;;;;;;5022819;28;19944;-75
2022/01/11 10:27:58;;;;;;;;;;;1.50;99.90;;;;;;5031223;28;19913;-75
2022/01/11 10:30:25;;;;;;;;;;;1.50;99.90;;;;;;5013911;28;19925;-76
2022/01/11 10:32:52;;;;;;;;;;;1.40;99.90;;;;;;5032297;28;20312;-76
2022/01/11 10:35:19;;;;;;;;;;;1.50;99.90;;;;;;5033019;28;19917;-75
2022/01/11 10:37:49;;;;;;;;;;;1.50;99.90;;;;;;5034659;28;19920;-75
2022/01/11 10:40:14;;;;;;;;;;;1.50;99.90;;;;;;5034516;28;19909;-75
2022/01/11 10:42:45;;;;;;;;;;;1.50;99.90;;;;;;5032991;28;19971;-76
2022/01/11 10:45:18;;;;;;;;;;;1.50;99.90;;;;;;5033783;28;19923;-76
2022/01/11 10:47:47;;;;;;;;;;;1.50;99.90;;;;;;5033584;28;19913;-75
2022/01/11 10:50:14;;;;;;;;;;;1.50;99.90;;;;;;5034413;28;19925;-76
2022/01/11 10:52:42;;;;;;;;;;;1.50;99.90;;;;;;5033935;28;19913;-75
2022/01/11 10:55:11;;;;;;;;;;;1.60;99.90;;;;;;5013245;28;20000;-75
2022/01/11 10:57:37;;;;;;;;;;;1.60;99.90;;;;;;5033371;28;19917;-76
2022/01/11 11:00:08;;;;;;;;;;;1.70;99.90;;;;;;5017398;28;19956;-76
2022/01/11 11:02:33;;;;;;;;;;;1.70;99.90;;;;;;5027653;28;19914;-78
2022/01/11 11:05:09;;;;;;;;;;;1.90;99.90;;;;;;5009893;28;19913;-76
2022/01/11 11:07:35;;;;;;;;;;;2.00;99.90;;;;;;5030313;28;19913;-76
2022/01/11 11:10:01;;;;;;;;;;;2.10;99.90;;;;;;5031020;28;20313;-76
2022/01/11 11:12:27;;;;;;;;;;;2.20;99.90;;;;;;5029862;28;19966;-75
2022/01/11 11:14:54;;;;;;;;;;;2.30;99.90;;;;;;5041470;28;19978;-77
2022/01/11 11:17:36;;;;;;;;;;;2.50;99.90;;;;;;5024963;28;19920;-76
2022/01/11 11:20:04;;;;;;;;;;;2.60;99.90;;;;;;5040178;28;19913;-76
2022/01/11 11:22:30;;;;;;;;;;;2.70;99.90;;;;;;5038856;28;19960;-76
2022/01/11 11:24:57;;;;;;;;;;;2.80;99.90;;;;;;5022922;28;20372;-76
2022/01/11 11:27:24;;;;;;;;;;;2.90;99.90;;;;;;5029237;28;19929;-76
2022/01/11 11:29:52;;;;;;;;;;;3.10;99.90;;;;;;5019427;28;19917;-76
2022/01/11 11:32:19;;;;;;;;;;;3.20;99.90;;;;;;5033454;28;19943;-76
2022/01/11 11:34:45;;;;;;;;;;;3.40;99.90;;;;;;5033373;28;19952;-76
2022/01/11 11:37:11;;;;;;;;;;;3.40;99.90;;;;;;5011213;28;20277;-76
2022/01/11 11:39:37;;;;;;;;;;;3.60;99.90;;;;;;5019396;28;20206;-76
2022/01/11 11:42:04;;;;;;;;;;;3.80;99.90;;;;;;5022598;28;20012;-78
2022/01/11 11:44:37;;;;;;;;;;;3.90;99.90;;;;;;5035115;28;19917;-77
2022/01/11 11:47:05;;;;;;;;;;;4.10;99.90;;;;;;5033805;28;20312;-78
2022/01/11 11:49:49;;;;;;;;;;;4.20;99.90;;;;;;5029708;28;19924;-77
2022/01/11 11:52:34;;;;;;;;;;;4.30;99.90;;;;;;5034643;28;19913;-77
2022/01/11 11:55:00;;;;;;;;;;;4.50;99.90;;;;;;5031762;28;20414;-78
2022/01/11 11:57:27;;;;;;;;;;;4.60;99.90;;;;;;5033558;28;19909;-77
2022/01/11 11:59:54;;;;;;;;;;;4.60;99.90;;;;;;5033739;28;19952;-75
2022/01/11 12:02:45;;;;;;;;;;;4.60;99.90;;;;;;5027355;28;20229;-76
2022/01/11 12:05:13;;;;;;;;;;;4.60;99.90;;;;;;4956230;29;20035;-77
2022/01/11 12:07:44;;;;;;;;;;;4.70;99.90;;;;;;4957040;28;19934;-77
2022/01/11 12:10:16;;;;;;;;;;;4.70;99.90;;;;;;4956055;29;19929;-77
2022/01/11 12:12:42;;;;;;;;;;;4.70;99.90;;;;;;4947442;29;19918;-77
2022/01/11 12:15:19;;;;;;;;;;;4.60;99.90;;;;;;4955538;28;19918;-77
2022/01/11 12:17:45;;;;;;;;;;;4.60;99.90;;;;;;4952460;28;20338;-76
2022/01/11 12:20:11;;;;;;;;;;;4.50;99.90;;;;;;4948144;28;19914;-78
2022/01/11 12:22:49;;;;;;;;;;;4.40;99.90;;;;;;4947324;29;20018;-77
2022/01/11 12:25:28;;;;;;;;;;;4.40;99.90;;;;;;4951743;29;19918;-77
2022/01/11 12:28:04;;;;;;;;;;;4.30;99.90;;;;;;4953886;28;19915;-77
2022/01/11 12:30:32;;;;;;;;;;;4.30;99.90;;;;;;4947865;29;20290;-77
2022/01/11 12:33:14;;;;;;;;;;;4.30;99.90;;;;;;4952767;29;19922;-77
2022/01/11 12:35:57;;;;;;;;;;;4.30;99.90;;;;;;4959195;28;20024;-77
2022/01/11 12:38:23;;;;;;;;;;;4.30;99.90;;;;;;4944463;29;19922;-77
2022/01/11 12:40:49;;;;;;;;;;;4.30;99.90;;;;;;4956848;28;19966;-76
2022/01/11 12:43:32;;;;;;;;;;;4.30;99.90;;;;;;5023600;28;19941;-77
2022/01/11 12:46:01;;;;;;;;;;;4.30;99.90;;;;;;5024931;28;19913;-77
2022/01/11 12:48:42;;;;;;;;;;;4.30;99.90;;;;;;5036799;28;19924;-78
2022/01/11 12:51:09;;;;;;;;;;;4.40;99.90;;;;;;5036509;28;20327;-78
2022/01/11 12:53:34;;;;;;;;;;;4.60;99.90;;;;;;5035889;28;19909;-77
2022/01/11 12:56:00;;;;;;;;;;;4.90;99.90;;;;;;5023795;28;19917;-78
2022/01/11 12:58:25;;;;;;;;;;;5.00;99.90;;;;;;5016964;28;20253;-78
2022/01/11 13:00:52;;;;;;;;;;;5.00;99.90;;;;;;5012946;28;19920;-78
2022/01/11 13:03:18;;;;;;;;;;;5.00;99.90;;;;;;5019115;28;19996;-77
2022/01/11 13:05:44;;;;;;;;;;;4.90;99.90;;;;;;5045104;28;20043;-77
2022/01/11 13:08:09;;;;;;;;;;;4.80;99.90;;;;;;5037296;28;20353;-77
2022/01/11 13:10:35;;;;;;;;;;;4.80;99.90;;;;;;5037280;28;19917;-77
2022/01/11 13:15:38;;;;;;;;;;;4.70;99.90;;;;;;5036338;28;19913;-77
2022/01/11 13:18:07;;;;;;;;;;;4.70;99.90;;;;;;5042495;28;19910;-77
2022/01/11 13:20:33;;;;;;;;;;;4.60;99.90;;;;;;5035886;28;19976;-78
2022/01/11 13:23:28;;;;;;;;;;;4.70;99.90;;;;;;5037214;28;19921;-77
2022/01/11 13:25:54;;;;;;;;;;;4.70;99.90;;;;;;5035880;28;19909;-79
2022/01/11 13:28:21;;;;;;;;;;;4.80;99.90;;;;;;5031264;28;19920;-77
2022/01/11 13:30:49;;;;;;;;;;;5.00;99.90;;;;;;5031467;28;19975;-77
2022/01/11 13:33:25;;;;;;;;;;;5.00;99.90;;;;;;5017510;28;19920;-76
2022/01/11 13:35:51;;;;;;;;;;;5.10;99.90;;;;;;5016714;28;20365;-77
2022/01/11 13:38:17;;;;;;;;;;;5.20;99.90;;;;;;5035154;28;20011;-77
2022/01/11 13:40:43;;;;;;;;;;;5.20;99.90;;;;;;5033192;28;20004;-78
2022/01/11 13:43:12;;;;;;;;;;;5.10;99.90;;;;;;5023109;28;19914;-77
2022/01/11 13:45:43;;;;;;;;;;;5.20;99.90;;;;;;5030055;28;19913;-78
2022/01/11 13:48:16;;;;;;;;;;;5.30;99.90;;;;;;5020093;28;20284;-78
2022/01/11 13:50:46;;;;;;;;;;;5.30;99.90;;;;;;5010708;28;20410;-79
2022/01/11 13:53:20;;;;;;;;;;;5.20;99.90;;;;;;5022352;28;20278;-78
2022/01/11 13:55:48;;;;;;;;;;;5.20;99.90;;;;;;5018388;28;19925;-78
2022/01/11 13:58:17;;;;;;;;;;;5.10;99.90;;;;;;5014106;28;19922;-78
2022/01/11 14:00:43;;;;;;;;;;;5.10;99.90;;;;;;5022864;28;19945;-77
2022/01/11 14:03:14;;;;;;;;;;;5.00;99.90;;;;;;5029087;28;19956;-78
2022/01/11 14:05:39;;;;;;;;;;;5.00;99.90;;;;;;5008106;28;19941;-77
2022/01/11 14:08:09;;;;;;;;;;;4.90;99.90;;;;;;5024017;28;19940;-77
2022/01/11 14:10:37;;;;;;;;;;;4.90;99.90;;;;;;5020466;28;19929;-78
2022/01/11 14:13:16;;;;;;;;;;;4.90;99.90;;;;;;5031507;28;20332;-78
2022/01/11 14:15:42;;;;;;;;;;;4.90;99.90;;;;;;5031369;28;20007;-77
2022/01/11 14:18:11;;;;;;;;;;;4.80;99.90;;;;;;5033228;28;20011;-77
2022/01/11 14:20:37;;;;;;;;;;;4.80;99.90;;;;;;5020902;28;20024;-81
2022/01/11 14:23:10;;;;;;;;;;;4.80;99.90;;;;;;5012710;28;20016;-80
2022/01/11 14:25:38;;;;;;;;;;;4.70;99.90;;;;;;5010108;28;19914;-79
2022/01/11 14:28:09;;;;;;;;;;;4.70;99.90;;;;;;5021374;28;19913;-85
2022/01/11 14:30:42;;;;;;;;;;;4.70;99.90;;;;;;5009694;28;19925;-79
2022/01/11 14:33:10;;;;;;;;;;;4.70;99.90;;;;;;5008876;28;19925;-80
2022/01/11 14:35:36;;;;;;;;;;;4.60;99.90;;;;;;5006758;28;19971;-78